sensor_id;sensor_type;location;lat;lon;timestamp;pressure;altitude;pressure_sealevel;temperature;humidity
76484;BME280;65318;-33.924;18.406;2022-12-24T00:00:02;100351.46;;;24.74;41.04
76484;BME280;65318;-33.924;18.406;2022-12-24T00:02:27;100355.94;;;24.57;41.31
76484;BME280;65318;-33.924;18.406;2022-12-24T00:04:52;100355.06;;;25.06;40.99
76484;BME280;65318;-33.924;18.406;2022-12-24T00:07:18;100354.61;;;24.29;41.31
76484;BME280;65318;-33.924;18.406;2022-12-24T00:09:43;100355.14;;;25.04;41.35
76484;BME280;65318;-33.924;18.406;2022-12-24T00:12:09;100350.09;;;24.91;41.10
76484;BME280;65318;-33.924;18.406;2022-12-24T00:14:34;100352.66;;;24.48;41.68
76484;BME280;65318;-33.924;18.406;2022-12-24T00:17:00;100346.79;;;24.48;41.41
76484;BME280;65318;-33.924;18.406;2022-12-24T00:19:25;100348.48;;;24.33;41.58
76484;BME280;65318;-33.924;18.406;2022-12-24T00:21:51;100341.97;;;24.99;41.31
76484;BME280;65318;-33.924;18.406;2022-12-24T00:24:16;100338.90;;;24.36;41.46
76484;BME280;65318;-33.924;18.406;2022-12-24T00:26:42;100336.30;;;24.68;41.33
76484;BME280;65318;-33.924;18.406;2022-12-24T00:29:08;100330.29;;;24.51;41.25
76484;BME280;65318;-33.924;18.406;2022-12-24T00:31:33;100331.85;;;24.50;41.17
76484;BME280;65318;-33.924;18.406;2022-12-24T00:33:58;100325.11;;;24.28;41.53
76484;BME280;65318;-33.924;18.406;2022-12-24T00:36:24;100319.12;;;24.50;41.21
76484;BME280;65318;-33.924;18.406;2022-12-24T00:38:50;100322.52;;;24.18;41.60
76484;BME280;65318;-33.924;18.406;2022-12-24T00:41:15;100329.09;;;23.99;41.85
76484;BME280;65318;-33.924;18.406;2022-12-24T00:43:40;100330.46;;;23.90;42.00
76484;BME280;65318;-33.924;18.406;2022-12-24T00:46:06;100332.94;;;23.93;41.88
76484;BME280;65318;-33.924;18.406;2022-12-24T00:48:31;100339.54;;;24.03;41.76
76484;BME280;65318;-33.924;18.406;2022-12-24T00:50:57;100350.07;;;23.92;41.52
76484;BME280;65318;-33.924;18.406;2022-12-24T00:53:22;100357.29;;;24.10;41.63
76484;BME280;65318;-33.924;18.406;2022-12-24T00:55:48;100361.87;;;24.01;41.74
76484;BME280;65318;-33.924;18.406;2022-12-24T00:58:13;100366.33;;;24.04;42.01
76484;BME280;65318;-33.924;18.406;2022-12-24T01:00:39;100365.33;;;23.92;41.88
76484;BME280;65318;-33.924;18.406;2022-12-24T01:03:04;100369.22;;;24.22;41.86
76484;BME280;65318;-33.924;18.406;2022-12-24T01:05:30;100372.88;;;23.93;42.19
76484;BME280;65318;-33.924;18.406;2022-12-24T01:07:55;100373.59;;;24.37;41.25
76484;BME280;65318;-33.924;18.406;2022-12-24T01:10:21;100371.27;;;23.88;41.95
76484;BME280;65318;-33.924;18.406;2022-12-24T01:12:46;100365.54;;;24.11;41.93
76484;BME280;65318;-33.924;18.406;2022-12-24T01:15:14;100353.67;;;25.10;40.92
76484;BME280;65318;-33.924;18.406;2022-12-24T01:17:37;100341.96;;;24.46;41.39
76484;BME280;65318;-33.924;18.406;2022-12-24T01:20:03;100325.58;;;24.19;41.79
76484;BME280;65318;-33.924;18.406;2022-12-24T01:22:28;100306.96;;;24.65;41.53
76484;BME280;65318;-33.924;18.406;2022-12-24T01:24:54;100285.52;;;24.60;41.24
76484;BME280;65318;-33.924;18.406;2022-12-24T01:27:19;100275.17;;;24.05;41.38
76484;BME280;65318;-33.924;18.406;2022-12-24T01:29:45;100268.35;;;24.75;41.34
76484;BME280;65318;-33.924;18.406;2022-12-24T01:32:10;100264.64;;;24.52;41.71
76484;BME280;65318;-33.924;18.406;2022-12-24T01:34:36;100271.26;;;24.40;41.87
76484;BME280;65318;-33.924;18.406;2022-12-24T01:37:01;100266.59;;;24.21;41.80
76484;BME280;65318;-33.924;18.406;2022-12-24T01:39:27;100270.07;;;24.51;41.35
76484;BME280;65318;-33.924;18.406;2022-12-24T01:41:52;100287.85;;;24.48;41.67
76484;BME280;65318;-33.924;18.406;2022-12-24T01:44:21;100303.51;;;23.97;41.71
76484;BME280;65318;-33.924;18.406;2022-12-24T01:46:44;100315.38;;;23.77;42.26
76484;BME280;65318;-33.924;18.406;2022-12-24T01:49:11;100319.33;;;23.94;42.06
76484;BME280;65318;-33.924;18.406;2022-12-24T01:51:36;100315.26;;;23.89;41.71
76484;BME280;65318;-33.924;18.406;2022-12-24T01:54:02;100316.74;;;24.22;41.52
76484;BME280;65318;-33.924;18.406;2022-12-24T01:56:26;100322.34;;;23.82;42.02
76484;BME280;65318;-33.924;18.406;2022-12-24T01:58:54;100326.98;;;24.06;42.02
76484;BME280;65318;-33.924;18.406;2022-12-24T02:01:16;100334.24;;;23.49;42.05
76484;BME280;65318;-33.924;18.406;2022-12-24T02:03:42;100327.62;;;24.21;41.36
76484;BME280;65318;-33.924;18.406;2022-12-24T02:06:07;100322.81;;;24.21;41.63
76484;BME280;65318;-33.924;18.406;2022-12-24T02:08:33;100323.82;;;23.80;41.83
76484;BME280;65318;-33.924;18.406;2022-12-24T02:10:58;100322.30;;;24.04;41.49
76484;BME280;65318;-33.924;18.406;2022-12-24T02:13:23;100324.39;;;23.93;41.28
76484;BME280;65318;-33.924;18.406;2022-12-24T02:15:58;100327.86;;;23.74;41.50
76484;BME280;65318;-33.924;18.406;2022-12-24T02:18:20;100339.95;;;24.26;41.45
76484;BME280;65318;-33.924;18.406;2022-12-24T02:23:26;100340.25;;;24.32;41.09
76484;BME280;65318;-33.924;18.406;2022-12-24T02:25:42;100345.13;;;24.28;41.12
76484;BME280;65318;-33.924;18.406;2022-12-24T02:27:59;100349.46;;;24.34;41.03
76484;BME280;65318;-33.924;18.406;2022-12-24T02:30:23;100345.96;;;24.18;40.88
76484;BME280;65318;-33.924;18.406;2022-12-24T02:33:00;100339.18;;;23.66;41.93
76484;BME280;65318;-33.924;18.406;2022-12-24T02:35:17;100335.63;;;23.96;41.53
76484;BME280;65318;-33.924;18.406;2022-12-24T02:37:42;100331.70;;;24.32;41.42
76484;BME280;65318;-33.924;18.406;2022-12-24T02:40:08;100337.92;;;24.19;41.28
76484;BME280;65318;-33.924;18.406;2022-12-24T02:42:34;100342.74;;;23.74;41.86
76484;BME280;65318;-33.924;18.406;2022-12-24T02:44:58;100342.60;;;23.65;41.78
76484;BME280;65318;-33.924;18.406;2022-12-24T02:47:22;100344.67;;;23.61;41.75
76484;BME280;65318;-33.924;18.406;2022-12-24T02:49:47;100344.44;;;24.08;41.50
76484;BME280;65318;-33.924;18.406;2022-12-24T02:54:42;100354.03;;;23.30;42.24
76484;BME280;65318;-33.924;18.406;2022-12-24T02:57:11;100352.10;;;24.26;41.60
76484;BME280;65318;-33.924;18.406;2022-12-24T02:59:40;100354.47;;;23.68;41.72
76484;BME280;65318;-33.924;18.406;2022-12-24T03:01:59;100350.41;;;23.46;42.69
76484;BME280;65318;-33.924;18.406;2022-12-24T03:04:25;100348.34;;;23.78;41.58
76484;BME280;65318;-33.924;18.406;2022-12-24T03:06:50;100348.79;;;24.11;41.52
76484;BME280;65318;-33.924;18.406;2022-12-24T03:09:17;100350.49;;;24.06;41.61
76484;BME280;65318;-33.924;18.406;2022-12-24T03:11:36;100364.75;;;23.72;42.35
76484;BME280;65318;-33.924;18.406;2022-12-24T03:14:02;100359.72;;;24.08;41.83
76484;BME280;65318;-33.924;18.406;2022-12-24T03:16:27;100360.51;;;24.11;41.87
76484;BME280;65318;-33.924;18.406;2022-12-24T03:18:54;100358.46;;;23.95;41.71
76484;BME280;65318;-33.924;18.406;2022-12-24T03:21:22;100357.94;;;23.33;42.19
76484;BME280;65318;-33.924;18.406;2022-12-24T03:23:43;100358.70;;;23.86;41.52
76484;BME280;65318;-33.924;18.406;2022-12-24T03:26:11;100364.36;;;23.66;42.05
76484;BME280;65318;-33.924;18.406;2022-12-24T03:28:37;100375.38;;;23.70;42.11
76484;BME280;65318;-33.924;18.406;2022-12-24T03:31:01;100378.73;;;23.93;42.05
76484;BME280;65318;-33.924;18.406;2022-12-24T03:33:25;100375.46;;;23.19;42.43
76484;BME280;65318;-33.924;18.406;2022-12-24T03:35:51;100371.40;;;23.11;42.62
76484;BME280;65318;-33.924;18.406;2022-12-24T03:38:16;100374.88;;;23.29;42.45
76484;BME280;65318;-33.924;18.406;2022-12-24T03:40:42;100380.88;;;23.96;41.89
76484;BME280;65318;-33.924;18.406;2022-12-24T03:43:07;100376.94;;;24.11;42.03
76484;BME280;65318;-33.924;18.406;2022-12-24T03:45:33;100386.57;;;23.38;42.79
76484;BME280;65318;-33.924;18.406;2022-12-24T03:47:58;100379.55;;;24.44;41.69
76484;BME280;65318;-33.924;18.406;2022-12-24T03:50:24;100377.29;;;24.02;41.91
76484;BME280;65318;-33.924;18.406;2022-12-24T03:52:49;100375.23;;;23.62;42.52
76484;BME280;65318;-33.924;18.406;2022-12-24T03:55:15;100386.45;;;23.63;42.31
76484;BME280;65318;-33.924;18.406;2022-12-24T03:57:40;100383.52;;;24.26;41.83
76484;BME280;65318;-33.924;18.406;2022-12-24T04:00:07;100378.26;;;23.57;42.40
76484;BME280;65318;-33.924;18.406;2022-12-24T04:02:31;100383.60;;;23.74;42.52
76484;BME280;65318;-33.924;18.406;2022-12-24T04:04:57;100393.22;;;23.57;42.51
76484;BME280;65318;-33.924;18.406;2022-12-24T04:07:22;100389.48;;;23.88;42.09
76484;BME280;65318;-33.924;18.406;2022-12-24T04:09:48;100392.61;;;23.59;42.73
76484;BME280;65318;-33.924;18.406;2022-12-24T04:12:14;100392.65;;;23.51;42.95
76484;BME280;65318;-33.924;18.406;2022-12-24T04:14:39;100397.38;;;23.60;42.55
76484;BME280;65318;-33.924;18.406;2022-12-24T04:17:04;100397.50;;;23.44;42.73
76484;BME280;65318;-33.924;18.406;2022-12-24T04:19:30;100399.47;;;24.26;41.72
76484;BME280;65318;-33.924;18.406;2022-12-24T04:21:55;100400.53;;;24.74;40.93
76484;BME280;65318;-33.924;18.406;2022-12-24T04:24:21;100403.04;;;24.41;40.74
76484;BME280;65318;-33.924;18.406;2022-12-24T04:26:46;100403.49;;;24.36;41.74
76484;BME280;65318;-33.924;18.406;2022-12-24T04:29:13;100404.51;;;24.72;40.97
76484;BME280;65318;-33.924;18.406;2022-12-24T04:31:37;100402.37;;;25.80;39.51
76484;BME280;65318;-33.924;18.406;2022-12-24T04:34:02;100410.32;;;25.43;39.96
76484;BME280;65318;-33.924;18.406;2022-12-24T04:36:28;100420.12;;;25.08;40.51
76484;BME280;65318;-33.924;18.406;2022-12-24T04:38:53;100413.32;;;25.00;40.19
76484;BME280;65318;-33.924;18.406;2022-12-24T04:41:21;100419.47;;;25.51;38.95
76484;BME280;65318;-33.924;18.406;2022-12-24T04:43:45;100421.95;;;26.88;38.10
76484;BME280;65318;-33.924;18.406;2022-12-24T04:46:12;100418.57;;;26.99;37.30
76484;BME280;65318;-33.924;18.406;2022-12-24T04:48:36;100420.60;;;26.52;37.85
76484;BME280;65318;-33.924;18.406;2022-12-24T04:51:01;100416.12;;;27.06;37.25
76484;BME280;65318;-33.924;18.406;2022-12-24T04:53:26;100415.75;;;27.16;37.13
76484;BME280;65318;-33.924;18.406;2022-12-24T04:55:51;100410.01;;;27.16;37.26
76484;BME280;65318;-33.924;18.406;2022-12-24T04:58:17;100411.75;;;27.73;35.80
76484;BME280;65318;-33.924;18.406;2022-12-24T05:00:42;100402.50;;;32.37;30.41
76484;BME280;65318;-33.924;18.406;2022-12-24T05:03:08;100402.63;;;31.05;31.39
76484;BME280;65318;-33.924;18.406;2022-12-24T05:05:34;100402.85;;;33.23;29.14
76484;BME280;65318;-33.924;18.406;2022-12-24T05:07:59;100401.59;;;31.83;29.97
76484;BME280;65318;-33.924;18.406;2022-12-24T05:10:24;100406.88;;;30.81;31.52
76484;BME280;65318;-33.924;18.406;2022-12-24T05:12:49;100409.79;;;31.91;30.39
76484;BME280;65318;-33.924;18.406;2022-12-24T05:15:15;100407.85;;;31.52;30.36
76484;BME280;65318;-33.924;18.406;2022-12-24T05:17:40;100414.16;;;30.64;31.72
76484;BME280;65318;-33.924;18.406;2022-12-24T05:20:07;100415.07;;;31.41;31.21
76484;BME280;65318;-33.924;18.406;2022-12-24T05:22:31;100412.37;;;34.23;27.94
76484;BME280;65318;-33.924;18.406;2022-12-24T05:24:56;100413.90;;;34.88;26.65
76484;BME280;65318;-33.924;18.406;2022-12-24T05:27:22;100411.19;;;36.43;24.85
76484;BME280;65318;-33.924;18.406;2022-12-24T05:29:47;100409.78;;;35.86;24.89
76484;BME280;65318;-33.924;18.406;2022-12-24T05:32:13;100415.27;;;35.15;25.19
76484;BME280;65318;-33.924;18.406;2022-12-24T05:34:38;100411.94;;;34.99;25.22
76484;BME280;65318;-33.924;18.406;2022-12-24T05:37:03;100419.70;;;34.19;26.26
76484;BME280;65318;-33.924;18.406;2022-12-24T05:39:29;100421.54;;;32.88;27.29
76484;BME280;65318;-33.924;18.406;2022-12-24T05:41:55;100422.92;;;33.23;27.53
76484;BME280;65318;-33.924;18.406;2022-12-24T05:44:20;100426.13;;;32.19;28.18
76484;BME280;65318;-33.924;18.406;2022-12-24T05:46:45;100421.91;;;33.71;27.15
76484;BME280;65318;-33.924;18.406;2022-12-24T05:49:11;100427.07;;;33.03;27.35
76484;BME280;65318;-33.924;18.406;2022-12-24T05:51:36;100430.58;;;33.59;26.65
76484;BME280;65318;-33.924;18.406;2022-12-24T05:54:02;100427.53;;;34.17;26.37
76484;BME280;65318;-33.924;18.406;2022-12-24T05:56:27;100428.53;;;34.11;25.77
76484;BME280;65318;-33.924;18.406;2022-12-24T05:58:53;100428.04;;;33.36;26.42
76484;BME280;65318;-33.924;18.406;2022-12-24T06:01:18;100433.21;;;31.36;27.76
76484;BME280;65318;-33.924;18.406;2022-12-24T06:03:43;100437.12;;;32.25;27.44
76484;BME280;65318;-33.924;18.406;2022-12-24T06:06:11;100434.20;;;32.59;27.29
76484;BME280;65318;-33.924;18.406;2022-12-24T06:08:35;100436.25;;;33.88;26.08
76484;BME280;65318;-33.924;18.406;2022-12-24T06:11:01;100435.01;;;34.06;25.99
76484;BME280;65318;-33.924;18.406;2022-12-24T06:13:26;100441.08;;;33.92;25.74
76484;BME280;65318;-33.924;18.406;2022-12-24T06:15:53;100435.17;;;34.04;26.16
76484;BME280;65318;-33.924;18.406;2022-12-24T06:18:17;100429.83;;;33.65;25.68
76484;BME280;65318;-33.924;18.406;2022-12-24T06:20:42;100430.13;;;34.69;25.24
76484;BME280;65318;-33.924;18.406;2022-12-24T06:23:07;100430.44;;;34.62;25.13
76484;BME280;65318;-33.924;18.406;2022-12-24T06:25:34;100427.04;;;34.89;24.40
76484;BME280;65318;-33.924;18.406;2022-12-24T06:27:58;100429.88;;;34.78;24.55
76484;BME280;65318;-33.924;18.406;2022-12-24T06:30:24;100437.21;;;34.01;25.21
76484;BME280;65318;-33.924;18.406;2022-12-24T06:32:49;100441.37;;;34.61;24.87
76484;BME280;65318;-33.924;18.406;2022-12-24T06:35:15;100435.61;;;34.99;24.64
76484;BME280;65318;-33.924;18.406;2022-12-24T06:37:39;100434.11;;;34.03;25.41
76484;BME280;65318;-33.924;18.406;2022-12-24T06:40:06;100438.11;;;33.94;25.49
76484;BME280;65318;-33.924;18.406;2022-12-24T06:42:30;100442.80;;;32.90;26.49
76484;BME280;65318;-33.924;18.406;2022-12-24T06:44:55;100436.04;;;34.10;25.83
76484;BME280;65318;-33.924;18.406;2022-12-24T06:47:21;100438.95;;;33.56;25.95
76484;BME280;65318;-33.924;18.406;2022-12-24T06:49:46;100437.52;;;34.65;25.54
76484;BME280;65318;-33.924;18.406;2022-12-24T06:52:13;100436.30;;;32.47;27.15
76484;BME280;65318;-33.924;18.406;2022-12-24T06:54:37;100435.17;;;33.94;26.06
76484;BME280;65318;-33.924;18.406;2022-12-24T06:57:02;100431.92;;;34.04;25.86
76484;BME280;65318;-33.924;18.406;2022-12-24T06:59:28;100433.10;;;33.70;25.68
76484;BME280;65318;-33.924;18.406;2022-12-24T07:01:53;100434.37;;;34.65;24.99
76484;BME280;65318;-33.924;18.406;2022-12-24T07:04:19;100434.59;;;34.93;24.72
76484;BME280;65318;-33.924;18.406;2022-12-24T07:06:44;100435.52;;;34.02;25.40
76484;BME280;65318;-33.924;18.406;2022-12-24T07:09:12;100429.78;;;35.09;24.42
76484;BME280;65318;-33.924;18.406;2022-12-24T07:11:35;100433.13;;;34.96;24.24
76484;BME280;65318;-33.924;18.406;2022-12-24T07:14:00;100436.21;;;34.58;24.47
76484;BME280;65318;-33.924;18.406;2022-12-24T07:16:26;100434.71;;;35.57;24.00
76484;BME280;65318;-33.924;18.406;2022-12-24T07:18:51;100444.96;;;34.33;24.82
76484;BME280;65318;-33.924;18.406;2022-12-24T07:21:16;100444.72;;;34.69;24.11
76484;BME280;65318;-33.924;18.406;2022-12-24T07:23:42;100441.39;;;35.46;23.81
76484;BME280;65318;-33.924;18.406;2022-12-24T07:26:09;100443.80;;;35.18;24.09
76484;BME280;65318;-33.924;18.406;2022-12-24T07:28:33;100445.65;;;35.68;23.41
76484;BME280;65318;-33.924;18.406;2022-12-24T07:30:59;100443.96;;;35.90;23.33
76484;BME280;65318;-33.924;18.406;2022-12-24T07:33:24;100442.16;;;35.25;23.53
76484;BME280;65318;-33.924;18.406;2022-12-24T07:38:15;100450.09;;;35.05;23.82
76484;BME280;65318;-33.924;18.406;2022-12-24T07:40:40;100448.63;;;36.09;23.10
76484;BME280;65318;-33.924;18.406;2022-12-24T07:43:06;100452.54;;;35.12;23.85
76484;BME280;65318;-33.924;18.406;2022-12-24T07:45:31;100445.85;;;36.09;23.38
76484;BME280;65318;-33.924;18.406;2022-12-24T07:47:56;100446.44;;;35.87;23.26
76484;BME280;65318;-33.924;18.406;2022-12-24T07:50:22;100445.92;;;35.33;23.95
76484;BME280;65318;-33.924;18.406;2022-12-24T07:52:47;100445.25;;;35.25;23.85
76484;BME280;65318;-33.924;18.406;2022-12-24T07:55:14;100441.52;;;36.05;23.65
76484;BME280;65318;-33.924;18.406;2022-12-24T07:57:38;100443.32;;;35.69;23.43
76484;BME280;65318;-33.924;18.406;2022-12-24T08:00:06;100438.06;;;36.59;22.66
76484;BME280;65318;-33.924;18.406;2022-12-24T08:02:29;100429.85;;;37.06;22.34
76484;BME280;65318;-33.924;18.406;2022-12-24T08:04:55;100432.44;;;36.07;23.07
76484;BME280;65318;-33.924;18.406;2022-12-24T08:07:20;100426.52;;;36.87;22.19
76484;BME280;65318;-33.924;18.406;2022-12-24T08:09:45;100429.57;;;34.84;24.47
76484;BME280;65318;-33.924;18.406;2022-12-24T08:12:11;100434.98;;;35.46;24.20
76484;BME280;65318;-33.924;18.406;2022-12-24T08:14:36;100442.50;;;33.93;25.67
76484;BME280;65318;-33.924;18.406;2022-12-24T08:17:02;100440.76;;;34.24;25.66
76484;BME280;65318;-33.924;18.406;2022-12-24T08:19:27;100439.51;;;33.57;26.00
76484;BME280;65318;-33.924;18.406;2022-12-24T08:21:52;100444.16;;;34.41;25.87
76484;BME280;65318;-33.924;18.406;2022-12-24T08:24:18;100447.93;;;33.95;25.97
76484;BME280;65318;-33.924;18.406;2022-12-24T08:26:43;100446.24;;;34.36;26.16
76484;BME280;65318;-33.924;18.406;2022-12-24T08:29:09;100450.86;;;32.63;27.32
76484;BME280;65318;-33.924;18.406;2022-12-24T08:31:34;100449.69;;;33.47;26.91
76484;BME280;65318;-33.924;18.406;2022-12-24T08:34:00;100447.45;;;33.08;27.18
76484;BME280;65318;-33.924;18.406;2022-12-24T08:36:25;100454.14;;;33.13;26.90
76484;BME280;65318;-33.924;18.406;2022-12-24T08:38:51;100458.35;;;34.08;26.34
76484;BME280;65318;-33.924;18.406;2022-12-24T08:41:16;100447.30;;;32.90;27.06
76484;BME280;65318;-33.924;18.406;2022-12-24T08:43:42;100459.09;;;32.96;27.20
76484;BME280;65318;-33.924;18.406;2022-12-24T08:46:08;100463.72;;;33.95;26.13
76484;BME280;65318;-33.924;18.406;2022-12-24T08:48:33;100454.52;;;32.97;26.95
76484;BME280;65318;-33.924;18.406;2022-12-24T08:50:58;100450.46;;;32.43;27.45
76484;BME280;65318;-33.924;18.406;2022-12-24T08:53:24;100453.62;;;32.69;27.21
76484;BME280;65318;-33.924;18.406;2022-12-24T08:55:49;100448.94;;;33.05;27.13
76484;BME280;65318;-33.924;18.406;2022-12-24T08:58:15;100445.49;;;32.63;27.48
76484;BME280;65318;-33.924;18.406;2022-12-24T09:00:40;100444.66;;;33.32;26.98
76484;BME280;65318;-33.924;18.406;2022-12-24T09:03:06;100444.35;;;32.53;27.75
76484;BME280;65318;-33.924;18.406;2022-12-24T09:05:31;100440.97;;;33.29;26.97
76484;BME280;65318;-33.924;18.406;2022-12-24T09:07:57;100442.85;;;31.58;28.49
76484;BME280;65318;-33.924;18.406;2022-12-24T09:10:22;100437.91;;;32.25;27.82
76484;BME280;65318;-33.924;18.406;2022-12-24T09:12:48;100434.83;;;33.28;26.87
76484;BME280;65318;-33.924;18.406;2022-12-24T09:15:14;100439.31;;;32.85;27.48
76484;BME280;65318;-33.924;18.406;2022-12-24T09:17:39;100450.61;;;31.61;28.70
76484;BME280;65318;-33.924;18.406;2022-12-24T09:20:05;100435.18;;;32.59;27.85
76484;BME280;65318;-33.924;18.406;2022-12-24T09:22:29;100436.45;;;32.66;27.94
76484;BME280;65318;-33.924;18.406;2022-12-24T09:24:55;100433.61;;;32.69;27.80
76484;BME280;65318;-33.924;18.406;2022-12-24T09:27:20;100439.36;;;32.48;27.81
76484;BME280;65318;-33.924;18.406;2022-12-24T09:29:46;100441.54;;;31.80;28.53
76484;BME280;65318;-33.924;18.406;2022-12-24T09:32:12;100433.52;;;31.75;28.49
76484;BME280;65318;-33.924;18.406;2022-12-24T09:34:37;100441.48;;;32.50;27.60
76484;BME280;65318;-33.924;18.406;2022-12-24T09:37:02;100440.15;;;31.84;28.40
76484;BME280;65318;-33.924;18.406;2022-12-24T09:39:28;100444.08;;;32.11;28.89
76484;BME280;65318;-33.924;18.406;2022-12-24T09:41:59;100434.26;;;32.24;28.64
76484;BME280;65318;-33.924;18.406;2022-12-24T09:44:30;100434.23;;;31.43;28.71
76484;BME280;65318;-33.924;18.406;2022-12-24T09:46:45;100434.20;;;32.07;28.54
76484;BME280;65318;-33.924;18.406;2022-12-24T09:49:15;100435.11;;;32.52;27.93
76484;BME280;65318;-33.924;18.406;2022-12-24T09:51:39;100433.13;;;31.85;28.85
76484;BME280;65318;-33.924;18.406;2022-12-24T09:54:04;100430.16;;;32.88;27.90
76484;BME280;65318;-33.924;18.406;2022-12-24T09:56:30;100425.69;;;32.34;28.26
76484;BME280;65318;-33.924;18.406;2022-12-24T09:58:56;100427.06;;;32.99;27.82
76484;BME280;65318;-33.924;18.406;2022-12-24T10:01:17;100426.50;;;31.68;28.96
76484;BME280;65318;-33.924;18.406;2022-12-24T10:03:43;100426.15;;;32.84;28.16
76484;BME280;65318;-33.924;18.406;2022-12-24T10:06:12;100420.26;;;32.20;28.39
76484;BME280;65318;-33.924;18.406;2022-12-24T10:08:42;100419.69;;;32.08;28.59
76484;BME280;65318;-33.924;18.406;2022-12-24T10:11:05;100418.43;;;32.94;27.94
76484;BME280;65318;-33.924;18.406;2022-12-24T10:13:35;100419.30;;;32.60;27.79
76484;BME280;65318;-33.924;18.406;2022-12-24T10:15:55;100417.25;;;33.47;27.23
76484;BME280;65318;-33.924;18.406;2022-12-24T10:18:24;100418.82;;;32.43;28.05
76484;BME280;65318;-33.924;18.406;2022-12-24T10:20:46;100415.97;;;31.56;28.50
76484;BME280;65318;-33.924;18.406;2022-12-24T10:23:14;100421.88;;;32.03;28.25
76484;BME280;65318;-33.924;18.406;2022-12-24T10:25:39;100424.13;;;32.69;27.31
76484;BME280;65318;-33.924;18.406;2022-12-24T10:28:01;100424.79;;;31.95;27.74
76484;BME280;65318;-33.924;18.406;2022-12-24T10:30:23;100428.02;;;32.29;27.35
76484;BME280;65318;-33.924;18.406;2022-12-24T10:32:50;100427.21;;;31.20;27.56
76484;BME280;65318;-33.924;18.406;2022-12-24T10:35:20;100428.29;;;32.72;26.16
76484;BME280;65318;-33.924;18.406;2022-12-24T10:37:40;100429.53;;;31.77;26.74
76484;BME280;65318;-33.924;18.406;2022-12-24T10:40:10;100430.44;;;32.68;26.69
76484;BME280;65318;-33.924;18.406;2022-12-24T10:42:37;100431.06;;;32.65;25.68
76484;BME280;65318;-33.924;18.406;2022-12-24T10:45:04;100429.25;;;32.83;25.73
76484;BME280;65318;-33.924;18.406;2022-12-24T10:47:23;100431.92;;;32.45;25.94
76484;BME280;65318;-33.924;18.406;2022-12-24T10:49:51;100431.16;;;32.35;26.05
76484;BME280;65318;-33.924;18.406;2022-12-24T10:52:15;100432.70;;;32.60;25.55
76484;BME280;65318;-33.924;18.406;2022-12-24T10:57:04;100434.06;;;33.28;25.27
76484;BME280;65318;-33.924;18.406;2022-12-24T10:59:33;100431.89;;;31.90;26.45
76484;BME280;65318;-33.924;18.406;2022-12-24T11:01:55;100431.78;;;33.29;25.67
76484;BME280;65318;-33.924;18.406;2022-12-24T11:04:21;100436.62;;;33.07;25.46
76484;BME280;65318;-33.924;18.406;2022-12-24T11:06:52;100430.91;;;32.04;26.73
76484;BME280;65318;-33.924;18.406;2022-12-24T11:09:19;100429.02;;;31.91;26.87
76484;BME280;65318;-33.924;18.406;2022-12-24T11:11:35;100433.47;;;30.32;27.78
76484;BME280;65318;-33.924;18.406;2022-12-24T11:14:01;100424.29;;;32.27;25.93
76484;BME280;65318;-33.924;18.406;2022-12-24T11:16:28;100417.72;;;32.25;26.33
76484;BME280;65318;-33.924;18.406;2022-12-24T11:18:54;100421.60;;;32.70;26.07
76484;BME280;65318;-33.924;18.406;2022-12-24T11:21:22;100414.17;;;31.77;26.50
76484;BME280;65318;-33.924;18.406;2022-12-24T11:23:49;100418.82;;;32.18;26.12
76484;BME280;65318;-33.924;18.406;2022-12-24T11:26:09;100420.41;;;31.92;26.24
76484;BME280;65318;-33.924;18.406;2022-12-24T11:28:35;100426.03;;;31.94;26.26
76484;BME280;65318;-33.924;18.406;2022-12-24T11:31:04;100430.17;;;31.57;26.67
76484;BME280;65318;-33.924;18.406;2022-12-24T11:33:27;100424.38;;;29.90;27.65
76484;BME280;65318;-33.924;18.406;2022-12-24T11:35:56;100428.26;;;31.90;26.21
76484;BME280;65318;-33.924;18.406;2022-12-24T11:38:21;100422.57;;;30.98;26.39
76484;BME280;65318;-33.924;18.406;2022-12-24T11:40:45;100420.29;;;32.11;26.17
76484;BME280;65318;-33.924;18.406;2022-12-24T11:43:15;100416.97;;;32.79;25.52
76484;BME280;65318;-33.924;18.406;2022-12-24T11:45:34;100417.74;;;32.46;25.84
76484;BME280;65318;-33.924;18.406;2022-12-24T11:48:00;100409.47;;;32.21;25.95
76484;BME280;65318;-33.924;18.406;2022-12-24T11:50:27;100411.84;;;32.16;26.10
76484;BME280;65318;-33.924;18.406;2022-12-24T11:52:55;100418.24;;;32.82;25.55
76484;BME280;65318;-33.924;18.406;2022-12-24T11:55:19;100416.95;;;32.88;25.69
76484;BME280;65318;-33.924;18.406;2022-12-24T11:57:50;100413.88;;;32.74;25.65
76484;BME280;65318;-33.924;18.406;2022-12-24T12:00:10;100415.10;;;33.14;25.49
76484;BME280;65318;-33.924;18.406;2022-12-24T12:02:36;100416.13;;;32.82;25.55
76484;BME280;65318;-33.924;18.406;2022-12-24T12:05:01;100415.86;;;32.22;26.00
76484;BME280;65318;-33.924;18.406;2022-12-24T12:07:26;100418.14;;;32.88;25.60
76484;BME280;65318;-33.924;18.406;2022-12-24T12:09:50;100411.43;;;31.86;26.86
76484;BME280;65318;-33.924;18.406;2022-12-24T12:12:18;100416.60;;;31.80;26.92
76484;BME280;65318;-33.924;18.406;2022-12-24T12:14:44;100417.41;;;32.80;26.74
76484;BME280;65318;-33.924;18.406;2022-12-24T12:17:12;100425.53;;;32.08;27.24
76484;BME280;65318;-33.924;18.406;2022-12-24T12:19:36;100413.17;;;32.14;26.90
76484;BME280;65318;-33.924;18.406;2022-12-24T12:21:55;100412.20;;;31.85;27.44
76484;BME280;65318;-33.924;18.406;2022-12-24T12:24:24;100403.30;;;32.24;27.23
76484;BME280;65318;-33.924;18.406;2022-12-24T12:26:47;100413.68;;;31.47;27.91
76484;BME280;65318;-33.924;18.406;2022-12-24T12:29:21;100415.42;;;32.64;27.36